地図

経路データ

SID SEASON NUMBER BASIN SUBBASIN NAME ISO_TIME NATURE LAT LON WMO_WIND WMO_PRES WMO_AGENCY TRACK_TYPE DIST2LAND LANDFALL IFLAG USA_AGENCY USA_ATCF_ID USA_LAT USA_LON USA_RECORD USA_STATUS USA_WIND USA_PRES USA_SSHS USA_R34_NE USA_R34_SE USA_R34_SW USA_R34_NW USA_R50_NE USA_R50_SE USA_R50_SW USA_R50_NW USA_R64_NE USA_R64_SE USA_R64_SW USA_R64_NW USA_POCI USA_ROCI USA_RMW USA_EYE TOKYO_LAT TOKYO_LON TOKYO_GRADE TOKYO_WIND TOKYO_PRES TOKYO_R50_DIR TOKYO_R50_LONG TOKYO_R50_SHORT TOKYO_R30_DIR TOKYO_R30_LONG TOKYO_R30_SHORT TOKYO_LAND CMA_LAT CMA_LON CMA_CAT CMA_WIND CMA_PRES HKO_LAT HKO_LON HKO_CAT HKO_WIND HKO_PRES NEWDELHI_LAT NEWDELHI_LON NEWDELHI_GRADE NEWDELHI_WIND NEWDELHI_PRES NEWDELHI_CI NEWDELHI_DP NEWDELHI_POCI REUNION_LAT REUNION_LON REUNION_TYPE REUNION_WIND REUNION_PRES REUNION_TNUM REUNION_CI REUNION_RMW REUNION_R34_NE REUNION_R34_SE REUNION_R34_SW REUNION_R34_NW REUNION_R50_NE REUNION_R50_SE REUNION_R50_SW REUNION_R50_NW REUNION_R64_NE REUNION_R64_SE REUNION_R64_SW REUNION_R64_NW BOM_LAT BOM_LON BOM_TYPE BOM_WIND BOM_PRES BOM_TNUM BOM_CI BOM_RMW BOM_R34_NE BOM_R34_SE BOM_R34_SW BOM_R34_NW BOM_R50_NE BOM_R50_SE BOM_R50_SW BOM_R50_NW BOM_R64_NE BOM_R64_SE BOM_R64_SW BOM_R64_NW BOM_ROCI BOM_POCI BOM_EYE BOM_POS_METHOD BOM_PRES_METHOD NADI_LAT NADI_LON NADI_CAT NADI_WIND NADI_PRES WELLINGTON_LAT WELLINGTON_LON WELLINGTON_WIND WELLINGTON_PRES DS824_LAT DS824_LON DS824_STAGE DS824_WIND DS824_PRES TD9636_LAT TD9636_LON TD9636_STAGE TD9636_WIND TD9636_PRES TD9635_LAT TD9635_LON TD9635_WIND TD9635_PRES TD9635_ROCI NEUMANN_LAT NEUMANN_LON NEUMANN_CLASS NEUMANN_WIND NEUMANN_PRES MLC_LAT MLC_LON MLC_CLASS MLC_WIND MLC_PRES USA_GUST BOM_GUST BOM_GUST_PER REUNION_GUST REUNION_GUST_PER USA_SEAHGT USA_SEARAD_NE USA_SEARAD_SE USA_SEARAD_SW USA_SEARAD_NW STORM_SPEED STORM_DIR
1901305S09069 1902 44 SI MM NOT_NAMED 1901-10-31 18:00:00 NR -9.10000 68.6000 main 1699 1676 __________O___ -1 -9.10000 68.6000 7 5 246
1901305S09069 1902 44 SI MM NOT_NAMED 1901-10-31 21:00:00 NR -9.19541 68.3798 main 1676 1653 __________P___ -1 -9.19541 68.3798 7 5 246
1901305S09069 1902 44 SI MM NOT_NAMED 1901-11-01 00:00:00 NR -9.29260 68.1576 main 1653 1623 __________P___ -1 -9.29260 68.1576 7 5 246
1901305S09069 1902 44 SI MM NOT_NAMED 1901-11-01 03:00:00 NR -9.39350 67.9316 main 1623 1600 __________P___ -1 -9.39350 67.9316 7 5 245
1901305S09069 1902 44 SI MM NOT_NAMED 1901-11-01 06:00:00 NR -9.50000 67.7000 main 1600 1577 __________O___ -1 -9.50000 67.7000 7 5 245
1901305S09069 1902 44 SI MM NOT_NAMED 1901-11-01 09:00:00 NR -9.61370 67.4612 main 1577 1547 __________P___ -1 -9.61370 67.4612 7 5 244
1901305S09069 1902 44 SI MM NOT_NAMED 1901-11-01 12:00:00 NR -9.73493 67.2149 main 1547 1516 __________P___ -1 -9.73493 67.2149 7 6 243
1901305S09069 1902 44 SI MM NOT_NAMED 1901-11-01 15:00:00 NR -9.86369 66.9612 main 1516 1486 __________P___ -1 -9.86369 66.9612 7 6 242
1901305S09069 1902 44 SI MM NOT_NAMED 1901-11-01 18:00:00 NR -10.0000 66.7000 main 1486 1457 __________O___ -1 -10.0000 66.7000 7 6 242
1901305S09069 1902 44 SI MM NOT_NAMED 1901-11-01 21:00:00 NR -10.1428 66.4241 main 1457 1425 __________P___ -1 -10.1428 66.4241 7 6 242
1901305S09069 1902 44 SI MM NOT_NAMED 1901-11-02 00:00:00 NR -10.2925 66.1425 main 1419 1396 __________P___ -1 -10.2925 66.1425 7 6 241
1901305S09069 1902 44 SI MM NOT_NAMED 1901-11-02 03:00:00 NR -10.4459 65.8647 main 1396 1358 __________P___ -1 -10.4459 65.8647 7 6 240
1901305S09069 1902 44 SI MM NOT_NAMED 1901-11-02 06:00:00 NR -10.6000 65.6000 main 1358 1336 __________O___ -1 -10.6000 65.6000 7 6 238
1901305S09069 1902 44 SI MM NOT_NAMED 1901-11-02 09:00:00 NR -10.7499 65.3686 main 1336 1305 __________P___ -1 -10.7499 65.3686 7 5 236
1901305S09069 1902 44 SI MM NOT_NAMED 1901-11-02 12:00:00 NR -10.8998 65.1498 main 1299 1277 __________P___ -1 -10.8998 65.1498 7 5 235
1901305S09069 1902 44 SI MM NOT_NAMED 1901-11-02 15:00:00 NR -11.0498 64.9311 main 1277 1246 __________P___ -1 -11.0498 64.9311 7 5 236
1901305S09069 1902 44 SI MM NOT_NAMED 1901-11-02 18:00:00 NR -11.2000 64.7000 main 1246 1224 __________O___ -1 -11.2000 64.7000 7 6 238
1901305S09069 1902 44 SI MM NOT_NAMED 1901-11-02 21:00:00 NR -11.3500 64.4353 main 1208 1187 __________P___ -1 -11.3500 64.4353 7 6 241
1901305S09069 1902 44 SI MM NOT_NAMED 1901-11-03 00:00:00 NR -11.5000 64.1574 main 1187 1159 __________P___ -1 -11.5000 64.1574 7 6 241
1901305S09069 1902 44 SI MM NOT_NAMED 1901-11-03 03:00:00 NR -11.6500 63.8759 main 1150 1122 __________P___ -1 -11.6500 63.8759 7 6 241
1901305S09069 1902 44 SI MM NOT_NAMED 1901-11-03 06:00:00 NR -11.8000 63.6000 main 1122 1101 __________O___ -1 -11.8000 63.6000 7 6 240
1901305S09069 1902 44 SI MM NOT_NAMED 1901-11-03 09:00:00 NR -11.9499 63.3387 main 1095 1064 __________P___ -1 -11.9499 63.3387 7 6 239
1901305S09069 1902 44 SI MM NOT_NAMED 1901-11-03 12:00:00 NR -12.0999 63.0849 main 1064 1043 __________P___ -1 -12.0999 63.0849 7 6 238
1901305S09069 1902 44 SI MM NOT_NAMED 1901-11-03 15:00:00 NR -12.2499 62.8387 main 1038 1007 __________P___ -1 -12.2499 62.8387 7 6 238
1901305S09069 1902 44 SI MM NOT_NAMED 1901-11-03 18:00:00 NR -12.4000 62.6000 main 1007 987 __________O___ -1 -12.4000 62.6000 7 5 237
1901305S09069 1902 44 SI MM NOT_NAMED 1901-11-03 21:00:00 NR -12.5335 62.3918 main 987 957 __________P___ -1 -12.5335 62.3918 7 5 236
1901305S09069 1902 44 SI MM NOT_NAMED 1901-11-04 00:00:00 NR -12.6696 62.1869 main 957 936 __________P___ -1 -12.6696 62.1869 7 5 236
1901305S09069 1902 44 SI MM NOT_NAMED 1901-11-04 03:00:00 NR -12.8209 61.9636 main 936 901 __________P___ -1 -12.8209 61.9636 7 6 235
1901305S09069 1902 44 SI MM NOT_NAMED 1901-11-04 06:00:00 NR -13.0000 61.7000 main 901 866 __________O___ -1 -13.0000 61.7000 7 7 235
1901305S09069 1902 44 SI MM NOT_NAMED 1901-11-04 09:00:00 NR -13.2295 61.3643 main 866 817 __________P___ -1 -13.2295 61.3643 7 8 235
1901305S09069 1902 44 SI MM NOT_NAMED 1901-11-04 12:00:00 NR -13.4852 60.9878 main 817 779 __________P___ -1 -13.4852 60.9878 7 9 235
1901305S09069 1902 44 SI MM NOT_NAMED 1901-11-04 15:00:00 NR -13.7482 60.5924 main 779 732 __________P___ -1 -13.7482 60.5924 7 9 236
1901305S09069 1902 44 SI MM NOT_NAMED 1901-11-04 18:00:00 NR -14.0000 60.2000 main 732 700 __________O___ -1 -14.0000 60.2000 7 8 238
1901305S09069 1902 44 SI MM NOT_NAMED 1901-11-04 21:00:00 NR -14.1771 59.8862 main 700 679 __________P___ -1 -14.1771 59.8862 7 7 240
1901305S09069 1902 44 SI MM NOT_NAMED 1901-11-05 00:00:00 NR -14.3463 59.5729 main 679 646 __________P___ -1 -14.3463 59.5729 7 7 240
1901305S09069 1902 44 SI MM NOT_NAMED 1901-11-05 03:00:00 NR -14.5425 59.2233 main 646 604 __________P___ -1 -14.5425 59.2233 7 9 239
1901305S09069 1902 44 SI MM NOT_NAMED 1901-11-05 06:00:00 NR -14.8000 58.8000 main 604 563 __________O___ -1 -14.8000 58.8000 7 11 237
1901305S09069 1902 44 SI MM NOT_NAMED 1901-11-05 09:00:00 NR -15.1570 58.2385 main 550 503 __________P___ -1 -15.1570 58.2385 7 14 236
1901305S09069 1902 44 SI MM NOT_NAMED 1901-11-05 12:00:00 NR -15.5760 57.6033 main 503 460 __________P___ -1 -15.5760 57.6033 7 15 235
1901305S09069 1902 44 SI MM NOT_NAMED 1901-11-05 15:00:00 NR -16.0319 56.9414 main 463 419 __________P___ -1 -16.0319 56.9414 7 16 234
1901305S09069 1902 44 SI MM NOT_NAMED 1901-11-05 18:00:00 NR -16.5000 56.3000 main 422 400 __________O___ -1 -16.5000 56.3000 7 15 234
1901305S09069 1902 44 SI MM NOT_NAMED 1901-11-05 21:00:00 NR -16.8979 55.7166 main 405 395 __________P___ -1 -16.8979 55.7166 7 14 233
1901305S09069 1902 44 SI MM NOT_NAMED 1901-11-06 00:00:00 NR -17.3098 55.1659 main 395 372 __________P___ -1 -17.3098 55.1659 7 13 229
1901305S09069 1902 44 SI MM NOT_NAMED 1901-11-06 03:00:00 NR -17.7668 54.6572 main 363 323 __________P___ -1 -17.7668 54.6572 7 14 223
1901305S09069 1902 44 SI MM NOT_NAMED 1901-11-06 06:00:00 NR -18.3000 54.2000 main 323 282 __________O___ -1 -18.3000 54.2000 7 15 218
1901305S09069 1902 44 SI MM NOT_NAMED 1901-11-06 09:00:00 NR -18.9458 53.7008 main 288 259 __________P___ -1 -18.9458 53.7008 7 16 213
1901305S09069 1902 44 SI MM NOT_NAMED 1901-11-06 12:00:00 NR -19.6674 53.2645 main 252 241 __________P___ -1 -19.6674 53.2645 7 17 206
1901305S09069 1902 44 SI MM NOT_NAMED 1901-11-06 15:00:00 NR -20.4302 52.9454 main 251 241 __________P___ -1 -20.4302 52.9454 7 16 196
1901305S09069 1902 44 SI MM NOT_NAMED 1901-11-06 18:00:00 NR -21.2000 52.8000 main 249 249 __________O___ -1 -21.2000 52.8000 7 16 184
1901305S09069 1902 44 SI MM NOT_NAMED 1901-11-06 21:00:00 NR -21.9805 52.8278 main 267 267 __________P___ -1 -21.9805 52.8278 7 16 172
1901305S09069 1902 44 SI MM NOT_NAMED 1901-11-07 00:00:00 NR -22.7530 53.0395 main 290 281 __________P___ -1 -22.7530 53.0395 7 16 160
1901305S09069 1902 44 SI MM NOT_NAMED 1901-11-07 03:00:00 NR -23.4741 53.4067 main 314 307 __________P___ -1 -23.4741 53.4067 7 16 150
1901305S09069 1902 44 SI MM NOT_NAMED 1901-11-07 06:00:00 NR -24.1000 53.9000 main 344 344 __________O___ -1 -24.1000 53.9000 7 15 140
1901305S09069 1902 44 SI MM NOT_NAMED 1901-11-07 09:00:00 NR -24.6005 54.4479 main 378 374 __________P___ -1 -24.6005 54.4479 7 14 129
1901305S09069 1902 44 SI MM NOT_NAMED 1901-11-07 12:00:00 NR -25.0005 55.1077 main 405 404 __________P___ -1 -25.0005 55.1077 7 15 120
1901305S09069 1902 44 SI MM NOT_NAMED 1901-11-07 15:00:00 NR -25.3252 55.8388 main 436 436 __________P___ -1 -25.3252 55.8388 7 15 114
1901305S09069 1902 44 SI MM NOT_NAMED 1901-11-07 18:00:00 NR -25.6000 56.6000 main 480 480 __________O___ -1 -25.6000 56.6000 7 15 111
1901305S09069 1902 44 SI MM NOT_NAMED 1901-11-07 21:00:00 NR -25.8478 57.3579 main 524 524 __________P___ -1 -25.8478 57.3579 7 14 109
1901305S09069 1902 44 SI MM NOT_NAMED 1901-11-08 00:00:00 NR -26.0771 58.1083 main 583 583 __________P___ -1 -26.0771 58.1083 7 14 108
1901305S09069 1902 44 SI MM NOT_NAMED 1901-11-08 03:00:00 NR -26.2929 58.8546 main 641 641 __________P___ -1 -26.2929 58.8546 7 14 108
1901305S09069 1902 44 SI MM NOT_NAMED 1901-11-08 06:00:00 NR -26.5000 59.6000 main 697 __________O___ -1 -26.5000 59.6000 7 14 107

IBTrACS Databaseについて

本データベースは、米国NOAAが公開する1842年以降の世界の熱帯低気圧のベストトラックデータアーカイブInternational Best Track Archive for Climate Stewardship (IBTrACS)を、ウェブで閲覧しやすい形式に変換したものです。

最終更新日:2021-10-08